sensor_id;sensor_type;location;lat;lon;timestamp;P1;durP1;ratioP1;P2;durP2;ratioP2
16954;SDS011;8594;52.052;8.354;2023-05-06T00:01:13;16.17;;;10.67;;
16954;SDS011;8594;52.052;8.354;2023-05-06T00:03:40;16.67;;;10.80;;
16954;SDS011;8594;52.052;8.354;2023-05-06T00:06:07;17.77;;;10.93;;
16954;SDS011;8594;52.052;8.354;2023-05-06T00:08:34;21.87;;;11.70;;
16954;SDS011;8594;52.052;8.354;2023-05-06T00:11:01;19.30;;;11.97;;
16954;SDS011;8594;52.052;8.354;2023-05-06T00:13:28;17.70;;;11.23;;
16954;SDS011;8594;52.052;8.354;2023-05-06T00:15:56;19.77;;;12.30;;
16954;SDS011;8594;52.052;8.354;2023-05-06T00:18:22;19.43;;;12.80;;
16954;SDS011;8594;52.052;8.354;2023-05-06T00:20:49;18.10;;;11.90;;
16954;SDS011;8594;52.052;8.354;2023-05-06T00:23:16;19.67;;;12.67;;
16954;SDS011;8594;52.052;8.354;2023-05-06T00:25:43;18.77;;;12.60;;
16954;SDS011;8594;52.052;8.354;2023-05-06T00:28:10;19.17;;;12.33;;
16954;SDS011;8594;52.052;8.354;2023-05-06T00:30:36;21.67;;;13.73;;
16954;SDS011;8594;52.052;8.354;2023-05-06T00:33:04;21.20;;;12.97;;
16954;SDS011;8594;52.052;8.354;2023-05-06T00:35:31;21.23;;;13.27;;
16954;SDS011;8594;52.052;8.354;2023-05-06T00:38:05;19.47;;;13.00;;
16954;SDS011;8594;52.052;8.354;2023-05-06T00:40:34;19.63;;;13.17;;
16954;SDS011;8594;52.052;8.354;2023-05-06T00:43:01;21.13;;;13.33;;
16954;SDS011;8594;52.052;8.354;2023-05-06T00:45:28;20.23;;;12.70;;
16954;SDS011;8594;52.052;8.354;2023-05-06T00:47:55;22.20;;;12.43;;
16954;SDS011;8594;52.052;8.354;2023-05-06T00:50:23;26.40;;;14.70;;
16954;SDS011;8594;52.052;8.354;2023-05-06T00:52:53;22.47;;;13.80;;
16954;SDS011;8594;52.052;8.354;2023-05-06T00:55:23;22.07;;;14.23;;
16954;SDS011;8594;52.052;8.354;2023-05-06T00:57:50;23.10;;;13.73;;
16954;SDS011;8594;52.052;8.354;2023-05-06T01:00:18;20.87;;;13.97;;
16954;SDS011;8594;52.052;8.354;2023-05-06T01:02:45;21.13;;;14.13;;
16954;SDS011;8594;52.052;8.354;2023-05-06T01:05:12;21.60;;;13.67;;
16954;SDS011;8594;52.052;8.354;2023-05-06T01:07:43;22.93;;;14.10;;
16954;SDS011;8594;52.052;8.354;2023-05-06T01:10:20;24.33;;;14.47;;
16954;SDS011;8594;52.052;8.354;2023-05-06T01:12:57;23.70;;;14.13;;
16954;SDS011;8594;52.052;8.354;2023-05-06T01:15:32;23.80;;;13.83;;
16954;SDS011;8594;52.052;8.354;2023-05-06T01:18:07;23.43;;;14.77;;
16954;SDS011;8594;52.052;8.354;2023-05-06T01:20:37;23.97;;;14.73;;
16954;SDS011;8594;52.052;8.354;2023-05-06T01:23:08;24.07;;;15.17;;
16954;SDS011;8594;52.052;8.354;2023-05-06T01:25:36;24.93;;;14.50;;
16954;SDS011;8594;52.052;8.354;2023-05-06T01:28:04;23.07;;;14.87;;
16954;SDS011;8594;52.052;8.354;2023-05-06T01:30:35;24.07;;;14.50;;
16954;SDS011;8594;52.052;8.354;2023-05-06T01:33:13;25.07;;;15.73;;
16954;SDS011;8594;52.052;8.354;2023-05-06T01:35:49;26.60;;;15.67;;
16954;SDS011;8594;52.052;8.354;2023-05-06T01:38:37;24.50;;;15.43;;
16954;SDS011;8594;52.052;8.354;2023-05-06T01:41:13;27.30;;;14.77;;
16954;SDS011;8594;52.052;8.354;2023-05-06T01:43:43;28.60;;;16.47;;
16954;SDS011;8594;52.052;8.354;2023-05-06T01:46:13;23.00;;;15.30;;
16954;SDS011;8594;52.052;8.354;2023-05-06T01:48:45;24.90;;;15.03;;
16954;SDS011;8594;52.052;8.354;2023-05-06T01:51:17;24.37;;;14.87;;
16954;SDS011;8594;52.052;8.354;2023-05-06T01:53:46;23.00;;;14.43;;
16954;SDS011;8594;52.052;8.354;2023-05-06T01:56:13;24.00;;;14.83;;
16954;SDS011;8594;52.052;8.354;2023-05-06T01:58:41;22.03;;;14.10;;
16954;SDS011;8594;52.052;8.354;2023-05-06T02:01:07;23.07;;;14.43;;
16954;SDS011;8594;52.052;8.354;2023-05-06T02:03:34;20.93;;;13.20;;
16954;SDS011;8594;52.052;8.354;2023-05-06T02:06:02;24.30;;;14.17;;
16954;SDS011;8594;52.052;8.354;2023-05-06T02:08:29;25.00;;;15.53;;
16954;SDS011;8594;52.052;8.354;2023-05-06T02:10:57;25.80;;;14.80;;
16954;SDS011;8594;52.052;8.354;2023-05-06T02:13:24;22.33;;;14.37;;
16954;SDS011;8594;52.052;8.354;2023-05-06T02:15:51;27.13;;;15.40;;
16954;SDS011;8594;52.052;8.354;2023-05-06T02:18:18;20.93;;;13.50;;
16954;SDS011;8594;52.052;8.354;2023-05-06T02:20:45;29.03;;;14.23;;
16954;SDS011;8594;52.052;8.354;2023-05-06T02:23:12;24.90;;;14.03;;
16954;SDS011;8594;52.052;8.354;2023-05-06T02:25:39;24.77;;;15.10;;
16954;SDS011;8594;52.052;8.354;2023-05-06T02:28:07;24.30;;;14.63;;
16954;SDS011;8594;52.052;8.354;2023-05-06T02:30:34;26.73;;;14.73;;
16954;SDS011;8594;52.052;8.354;2023-05-06T02:33:01;21.50;;;13.63;;
16954;SDS011;8594;52.052;8.354;2023-05-06T02:35:28;20.30;;;13.23;;
16954;SDS011;8594;52.052;8.354;2023-05-06T02:37:55;23.10;;;13.37;;
16954;SDS011;8594;52.052;8.354;2023-05-06T02:40:21;21.97;;;14.10;;
16954;SDS011;8594;52.052;8.354;2023-05-06T02:42:48;21.37;;;13.13;;
16954;SDS011;8594;52.052;8.354;2023-05-06T02:45:16;22.10;;;13.77;;
16954;SDS011;8594;52.052;8.354;2023-05-06T02:47:43;21.83;;;13.53;;
16954;SDS011;8594;52.052;8.354;2023-05-06T02:50:10;20.67;;;13.00;;
16954;SDS011;8594;52.052;8.354;2023-05-06T02:52:37;20.47;;;12.73;;
16954;SDS011;8594;52.052;8.354;2023-05-06T02:55:04;22.07;;;13.40;;
16954;SDS011;8594;52.052;8.354;2023-05-06T02:57:32;23.30;;;14.50;;
16954;SDS011;8594;52.052;8.354;2023-05-06T02:59:58;25.03;;;15.50;;
16954;SDS011;8594;52.052;8.354;2023-05-06T03:02:27;34.13;;;16.13;;
16954;SDS011;8594;52.052;8.354;2023-05-06T03:04:54;36.50;;;17.50;;
16954;SDS011;8594;52.052;8.354;2023-05-06T03:07:21;36.40;;;17.13;;
16954;SDS011;8594;52.052;8.354;2023-05-06T03:09:47;35.20;;;18.63;;
16954;SDS011;8594;52.052;8.354;2023-05-06T03:12:14;30.70;;;17.90;;
16954;SDS011;8594;52.052;8.354;2023-05-06T03:14:41;29.20;;;16.97;;
16954;SDS011;8594;52.052;8.354;2023-05-06T03:17:08;29.00;;;17.33;;
16954;SDS011;8594;52.052;8.354;2023-05-06T03:19:36;27.83;;;15.77;;
16954;SDS011;8594;52.052;8.354;2023-05-06T03:22:03;28.30;;;16.67;;
16954;SDS011;8594;52.052;8.354;2023-05-06T03:24:29;26.07;;;14.73;;
16954;SDS011;8594;52.052;8.354;2023-05-06T03:26:56;28.77;;;15.10;;
16954;SDS011;8594;52.052;8.354;2023-05-06T03:29:23;27.87;;;15.00;;
16954;SDS011;8594;52.052;8.354;2023-05-06T03:31:50;22.20;;;13.70;;
16954;SDS011;8594;52.052;8.354;2023-05-06T03:34:17;33.77;;;14.97;;
16954;SDS011;8594;52.052;8.354;2023-05-06T03:36:45;28.17;;;13.93;;
16954;SDS011;8594;52.052;8.354;2023-05-06T03:39:12;26.67;;;15.97;;
16954;SDS011;8594;52.052;8.354;2023-05-06T03:41:38;33.83;;;15.40;;
16954;SDS011;8594;52.052;8.354;2023-05-06T03:44:05;27.27;;;14.27;;
16954;SDS011;8594;52.052;8.354;2023-05-06T03:46:32;24.43;;;12.87;;
16954;SDS011;8594;52.052;8.354;2023-05-06T03:48:58;22.17;;;12.83;;
16954;SDS011;8594;52.052;8.354;2023-05-06T03:51:26;20.43;;;12.77;;
16954;SDS011;8594;52.052;8.354;2023-05-06T03:53:55;20.97;;;12.23;;
16954;SDS011;8594;52.052;8.354;2023-05-06T03:56:21;20.17;;;10.30;;
16954;SDS011;8594;52.052;8.354;2023-05-06T03:58:48;27.80;;;11.00;;
16954;SDS011;8594;52.052;8.354;2023-05-06T04:01:15;25.83;;;10.90;;
16954;SDS011;8594;52.052;8.354;2023-05-06T04:03:42;19.57;;;10.70;;
16954;SDS011;8594;52.052;8.354;2023-05-06T04:06:09;22.13;;;11.77;;
16954;SDS011;8594;52.052;8.354;2023-05-06T04:08:35;25.73;;;10.67;;
16954;SDS011;8594;52.052;8.354;2023-05-06T04:11:04;17.13;;;10.07;;
16954;SDS011;8594;52.052;8.354;2023-05-06T04:13:32;22.97;;;10.20;;
16954;SDS011;8594;52.052;8.354;2023-05-06T04:15:59;26.90;;;10.90;;
16954;SDS011;8594;52.052;8.354;2023-05-06T04:18:26;34.77;;;10.70;;
16954;SDS011;8594;52.052;8.354;2023-05-06T04:20:53;19.97;;;11.23;;
16954;SDS011;8594;52.052;8.354;2023-05-06T04:23:20;22.80;;;11.87;;
16954;SDS011;8594;52.052;8.354;2023-05-06T04:25:46;23.83;;;12.80;;
16954;SDS011;8594;52.052;8.354;2023-05-06T04:28:15;31.43;;;14.67;;
16954;SDS011;8594;52.052;8.354;2023-05-06T04:30:42;31.67;;;15.23;;
16954;SDS011;8594;52.052;8.354;2023-05-06T04:33:10;27.07;;;15.17;;
16954;SDS011;8594;52.052;8.354;2023-05-06T04:35:37;48.87;;;14.10;;
16954;SDS011;8594;52.052;8.354;2023-05-06T04:38:05;40.20;;;14.30;;
16954;SDS011;8594;52.052;8.354;2023-05-06T04:40:33;55.40;;;14.43;;
16954;SDS011;8594;52.052;8.354;2023-05-06T04:43:00;41.07;;;12.93;;
16954;SDS011;8594;52.052;8.354;2023-05-06T04:45:29;20.60;;;13.33;;
16954;SDS011;8594;52.052;8.354;2023-05-06T04:47:58;22.23;;;13.37;;
16954;SDS011;8594;52.052;8.354;2023-05-06T04:50:25;25.33;;;12.20;;
16954;SDS011;8594;52.052;8.354;2023-05-06T04:52:51;41.63;;;11.43;;
16954;SDS011;8594;52.052;8.354;2023-05-06T04:55:18;35.87;;;10.63;;
16954;SDS011;8594;52.052;8.354;2023-05-06T04:57:45;30.17;;;10.60;;
16954;SDS011;8594;52.052;8.354;2023-05-06T05:00:12;18.33;;;10.20;;
16954;SDS011;8594;52.052;8.354;2023-05-06T05:02:41;37.33;;;11.83;;
16954;SDS011;8594;52.052;8.354;2023-05-06T05:05:08;33.57;;;12.17;;
16954;SDS011;8594;52.052;8.354;2023-05-06T05:07:35;62.10;;;12.90;;
16954;SDS011;8594;52.052;8.354;2023-05-06T05:10:02;44.40;;;14.43;;
16954;SDS011;8594;52.052;8.354;2023-05-06T05:12:30;27.17;;;12.07;;
16954;SDS011;8594;52.052;8.354;2023-05-06T05:14:57;21.40;;;12.60;;
16954;SDS011;8594;52.052;8.354;2023-05-06T05:17:24;21.53;;;13.13;;
16954;SDS011;8594;52.052;8.354;2023-05-06T05:19:52;21.97;;;10.90;;
16954;SDS011;8594;52.052;8.354;2023-05-06T05:22:19;17.97;;;11.53;;
16954;SDS011;8594;52.052;8.354;2023-05-06T05:24:45;20.77;;;11.73;;
16954;SDS011;8594;52.052;8.354;2023-05-06T05:27:12;27.37;;;12.17;;
16954;SDS011;8594;52.052;8.354;2023-05-06T05:29:39;18.73;;;11.53;;
16954;SDS011;8594;52.052;8.354;2023-05-06T05:32:06;19.23;;;11.07;;
16954;SDS011;8594;52.052;8.354;2023-05-06T05:34:32;15.30;;;10.57;;
16954;SDS011;8594;52.052;8.354;2023-05-06T05:37:01;17.13;;;11.23;;
16954;SDS011;8594;52.052;8.354;2023-05-06T05:39:28;22.00;;;11.30;;
16954;SDS011;8594;52.052;8.354;2023-05-06T05:41:55;23.07;;;10.30;;
16954;SDS011;8594;52.052;8.354;2023-05-06T05:44:22;30.27;;;11.57;;
16954;SDS011;8594;52.052;8.354;2023-05-06T05:46:49;32.53;;;12.00;;
16954;SDS011;8594;52.052;8.354;2023-05-06T05:49:16;21.77;;;12.23;;
16954;SDS011;8594;52.052;8.354;2023-05-06T05:51:43;21.57;;;12.13;;
16954;SDS011;8594;52.052;8.354;2023-05-06T05:54:11;23.37;;;12.90;;
16954;SDS011;8594;52.052;8.354;2023-05-06T05:56:38;18.63;;;11.67;;
16954;SDS011;8594;52.052;8.354;2023-05-06T05:59:05;21.47;;;12.80;;
16954;SDS011;8594;52.052;8.354;2023-05-06T06:01:32;24.20;;;12.67;;
16954;SDS011;8594;52.052;8.354;2023-05-06T06:03:59;23.10;;;12.07;;
16954;SDS011;8594;52.052;8.354;2023-05-06T06:06:25;17.13;;;11.50;;
16954;SDS011;8594;52.052;8.354;2023-05-06T06:08:52;21.80;;;11.57;;
16954;SDS011;8594;52.052;8.354;2023-05-06T06:11:20;21.60;;;12.00;;
16954;SDS011;8594;52.052;8.354;2023-05-06T06:13:49;19.03;;;11.67;;
16954;SDS011;8594;52.052;8.354;2023-05-06T06:16:16;88.07;;;12.90;;
16954;SDS011;8594;52.052;8.354;2023-05-06T06:18:42;21.93;;;12.67;;
16954;SDS011;8594;52.052;8.354;2023-05-06T06:21:09;23.17;;;12.27;;
16954;SDS011;8594;52.052;8.354;2023-05-06T06:23:36;21.33;;;11.87;;
16954;SDS011;8594;52.052;8.354;2023-05-06T06:26:03;22.43;;;12.07;;
16954;SDS011;8594;52.052;8.354;2023-05-06T06:28:31;25.33;;;11.70;;
16954;SDS011;8594;52.052;8.354;2023-05-06T06:30:58;20.57;;;12.37;;
16954;SDS011;8594;52.052;8.354;2023-05-06T06:33:25;41.83;;;13.43;;
16954;SDS011;8594;52.052;8.354;2023-05-06T06:35:52;22.43;;;13.47;;
16954;SDS011;8594;52.052;8.354;2023-05-06T06:38:19;24.37;;;13.30;;
16954;SDS011;8594;52.052;8.354;2023-05-06T06:40:46;23.13;;;14.00;;
16954;SDS011;8594;52.052;8.354;2023-05-06T06:43:13;26.40;;;13.33;;
16954;SDS011;8594;52.052;8.354;2023-05-06T06:45:43;27.37;;;13.90;;
16954;SDS011;8594;52.052;8.354;2023-05-06T06:48:12;25.60;;;14.30;;
16954;SDS011;8594;52.052;8.354;2023-05-06T06:50:39;21.33;;;13.40;;
16954;SDS011;8594;52.052;8.354;2023-05-06T06:53:05;23.13;;;13.27;;
16954;SDS011;8594;52.052;8.354;2023-05-06T06:55:32;30.00;;;12.83;;
16954;SDS011;8594;52.052;8.354;2023-05-06T06:57:59;25.23;;;12.57;;
16954;SDS011;8594;52.052;8.354;2023-05-06T07:00:27;28.50;;;13.53;;
16954;SDS011;8594;52.052;8.354;2023-05-06T07:02:56;21.00;;;12.73;;
16954;SDS011;8594;52.052;8.354;2023-05-06T07:05:22;22.97;;;12.17;;
16954;SDS011;8594;52.052;8.354;2023-05-06T07:07:51;19.23;;;12.00;;
16954;SDS011;8594;52.052;8.354;2023-05-06T07:10:18;22.80;;;12.47;;
16954;SDS011;8594;52.052;8.354;2023-05-06T07:12:45;24.13;;;13.70;;
16954;SDS011;8594;52.052;8.354;2023-05-06T07:15:12;22.80;;;13.80;;
16954;SDS011;8594;52.052;8.354;2023-05-06T07:17:39;26.97;;;14.00;;
16954;SDS011;8594;52.052;8.354;2023-05-06T07:20:08;28.10;;;12.87;;
16954;SDS011;8594;52.052;8.354;2023-05-06T07:22:36;23.87;;;13.60;;
16954;SDS011;8594;52.052;8.354;2023-05-06T07:25:05;24.20;;;14.83;;
16954;SDS011;8594;52.052;8.354;2023-05-06T07:27:33;19.57;;;12.40;;
16954;SDS011;8594;52.052;8.354;2023-05-06T07:30:00;20.10;;;12.17;;
16954;SDS011;8594;52.052;8.354;2023-05-06T07:32:27;22.20;;;12.60;;
16954;SDS011;8594;52.052;8.354;2023-05-06T07:34:54;22.30;;;13.13;;
16954;SDS011;8594;52.052;8.354;2023-05-06T07:37:22;22.60;;;13.40;;
16954;SDS011;8594;52.052;8.354;2023-05-06T07:39:49;24.30;;;13.83;;
16954;SDS011;8594;52.052;8.354;2023-05-06T07:42:16;22.97;;;13.10;;
16954;SDS011;8594;52.052;8.354;2023-05-06T07:44:43;25.23;;;13.97;;
16954;SDS011;8594;52.052;8.354;2023-05-06T07:47:10;25.87;;;14.30;;
16954;SDS011;8594;52.052;8.354;2023-05-06T07:49:37;22.17;;;13.40;;
16954;SDS011;8594;52.052;8.354;2023-05-06T07:52:03;28.93;;;14.33;;
16954;SDS011;8594;52.052;8.354;2023-05-06T07:54:32;25.97;;;14.83;;
16954;SDS011;8594;52.052;8.354;2023-05-06T07:56:58;27.40;;;14.13;;
16954;SDS011;8594;52.052;8.354;2023-05-06T07:59:26;24.97;;;14.10;;
16954;SDS011;8594;52.052;8.354;2023-05-06T08:01:53;24.40;;;13.97;;
16954;SDS011;8594;52.052;8.354;2023-05-06T08:04:19;24.03;;;13.63;;
16954;SDS011;8594;52.052;8.354;2023-05-06T08:06:46;24.37;;;13.30;;
16954;SDS011;8594;52.052;8.354;2023-05-06T08:09:13;21.63;;;12.37;;
16954;SDS011;8594;52.052;8.354;2023-05-06T08:11:41;22.27;;;13.07;;
16954;SDS011;8594;52.052;8.354;2023-05-06T08:14:08;19.30;;;12.03;;
16954;SDS011;8594;52.052;8.354;2023-05-06T08:16:35;20.77;;;11.73;;
16954;SDS011;8594;52.052;8.354;2023-05-06T08:19:03;19.73;;;10.87;;
16954;SDS011;8594;52.052;8.354;2023-05-06T08:21:31;16.97;;;10.97;;
16954;SDS011;8594;52.052;8.354;2023-05-06T08:24:03;19.67;;;11.53;;
16954;SDS011;8594;52.052;8.354;2023-05-06T08:26:31;15.37;;;9.73;;
16954;SDS011;8594;52.052;8.354;2023-05-06T08:28:59;17.13;;;10.77;;
16954;SDS011;8594;52.052;8.354;2023-05-06T08:31:27;20.13;;;11.70;;
16954;SDS011;8594;52.052;8.354;2023-05-06T08:33:54;17.60;;;11.43;;
16954;SDS011;8594;52.052;8.354;2023-05-06T08:36:21;18.33;;;11.07;;
16954;SDS011;8594;52.052;8.354;2023-05-06T08:38:48;21.17;;;12.47;;
16954;SDS011;8594;52.052;8.354;2023-05-06T08:41:16;20.33;;;11.83;;
16954;SDS011;8594;52.052;8.354;2023-05-06T08:43:45;22.40;;;11.53;;
16954;SDS011;8594;52.052;8.354;2023-05-06T08:46:16;17.23;;;10.60;;
16954;SDS011;8594;52.052;8.354;2023-05-06T08:48:43;17.53;;;10.93;;
16954;SDS011;8594;52.052;8.354;2023-05-06T08:51:10;19.60;;;12.67;;
16954;SDS011;8594;52.052;8.354;2023-05-06T08:53:41;17.97;;;11.33;;
16954;SDS011;8594;52.052;8.354;2023-05-06T08:56:12;19.63;;;11.53;;
16954;SDS011;8594;52.052;8.354;2023-05-06T08:58:43;17.50;;;10.90;;
16954;SDS011;8594;52.052;8.354;2023-05-06T09:01:12;15.47;;;9.47;;
16954;SDS011;8594;52.052;8.354;2023-05-06T09:03:41;15.77;;;9.97;;
16954;SDS011;8594;52.052;8.354;2023-05-06T09:06:09;15.20;;;9.23;;
16954;SDS011;8594;52.052;8.354;2023-05-06T09:08:36;15.17;;;9.83;;
16954;SDS011;8594;52.052;8.354;2023-05-06T09:11:02;23.47;;;13.20;;
16954;SDS011;8594;52.052;8.354;2023-05-06T09:13:45;18.63;;;11.53;;
16954;SDS011;8594;52.052;8.354;2023-05-06T09:16:25;14.17;;;9.90;;
16954;SDS011;8594;52.052;8.354;2023-05-06T09:18:54;15.63;;;9.80;;
16954;SDS011;8594;52.052;8.354;2023-05-06T09:21:28;14.73;;;9.13;;
16954;SDS011;8594;52.052;8.354;2023-05-06T09:23:58;15.03;;;10.10;;
16954;SDS011;8594;52.052;8.354;2023-05-06T09:26:27;13.60;;;9.00;;
16954;SDS011;8594;52.052;8.354;2023-05-06T09:28:54;12.90;;;8.97;;
16954;SDS011;8594;52.052;8.354;2023-05-06T09:31:22;17.47;;;11.90;;
16954;SDS011;8594;52.052;8.354;2023-05-06T09:33:49;12.23;;;8.97;;
16954;SDS011;8594;52.052;8.354;2023-05-06T09:36:18;13.80;;;9.83;;
16954;SDS011;8594;52.052;8.354;2023-05-06T09:38:45;14.43;;;8.97;;
16954;SDS011;8594;52.052;8.354;2023-05-06T09:41:12;14.50;;;10.53;;
16954;SDS011;8594;52.052;8.354;2023-05-06T09:43:41;13.93;;;9.20;;
16954;SDS011;8594;52.052;8.354;2023-05-06T09:46:13;13.87;;;8.97;;
16954;SDS011;8594;52.052;8.354;2023-05-06T09:48:40;14.60;;;8.20;;
16954;SDS011;8594;52.052;8.354;2023-05-06T09:51:08;14.23;;;9.60;;
16954;SDS011;8594;52.052;8.354;2023-05-06T09:53:37;12.13;;;8.03;;
16954;SDS011;8594;52.052;8.354;2023-05-06T09:56:04;13.93;;;9.23;;
16954;SDS011;8594;52.052;8.354;2023-05-06T09:58:33;11.77;;;8.00;;
16954;SDS011;8594;52.052;8.354;2023-05-06T10:01:01;12.97;;;8.80;;
16954;SDS011;8594;52.052;8.354;2023-05-06T10:03:30;12.00;;;8.57;;
16954;SDS011;8594;52.052;8.354;2023-05-06T10:05:59;11.93;;;7.23;;
16954;SDS011;8594;52.052;8.354;2023-05-06T10:08:27;12.17;;;7.50;;
16954;SDS011;8594;52.052;8.354;2023-05-06T10:10:55;10.80;;;7.80;;
16954;SDS011;8594;52.052;8.354;2023-05-06T10:13:25;13.40;;;8.00;;
16954;SDS011;8594;52.052;8.354;2023-05-06T10:15:52;13.73;;;8.50;;
16954;SDS011;8594;52.052;8.354;2023-05-06T10:18:20;11.10;;;7.60;;
16954;SDS011;8594;52.052;8.354;2023-05-06T10:20:52;16.07;;;7.00;;
16954;SDS011;8594;52.052;8.354;2023-05-06T10:23:21;11.23;;;7.53;;
16954;SDS011;8594;52.052;8.354;2023-05-06T10:25:52;10.17;;;6.53;;
16954;SDS011;8594;52.052;8.354;2023-05-06T10:28:25;8.67;;;5.77;;
16954;SDS011;8594;52.052;8.354;2023-05-06T10:30:54;10.57;;;5.17;;
16954;SDS011;8594;52.052;8.354;2023-05-06T10:33:23;8.23;;;5.33;;
16954;SDS011;8594;52.052;8.354;2023-05-06T10:35:54;11.50;;;4.10;;
16954;SDS011;8594;52.052;8.354;2023-05-06T10:38:33;4.70;;;3.60;;
16954;SDS011;8594;52.052;8.354;2023-05-06T10:41:07;7.00;;;4.27;;
16954;SDS011;8594;52.052;8.354;2023-05-06T10:43:37;5.17;;;3.03;;
16954;SDS011;8594;52.052;8.354;2023-05-06T10:46:07;4.07;;;2.70;;
16954;SDS011;8594;52.052;8.354;2023-05-06T10:48:35;3.00;;;1.60;;
16954;SDS011;8594;52.052;8.354;2023-05-06T10:54:01;5.93;;;2.53;;
16954;SDS011;8594;52.052;8.354;2023-05-06T10:56:32;3.07;;;2.30;;
16954;SDS011;8594;52.052;8.354;2023-05-06T10:59:01;4.93;;;2.77;;
16954;SDS011;8594;52.052;8.354;2023-05-06T11:01:33;4.57;;;3.10;;
16954;SDS011;8594;52.052;8.354;2023-05-06T11:04:06;6.03;;;3.10;;
16954;SDS011;8594;52.052;8.354;2023-05-06T11:06:35;3.27;;;2.27;;
16954;SDS011;8594;52.052;8.354;2023-05-06T11:09:06;5.43;;;2.80;;
16954;SDS011;8594;52.052;8.354;2023-05-06T11:11:49;4.10;;;2.60;;
16954;SDS011;8594;52.052;8.354;2023-05-06T11:14:24;3.43;;;2.57;;
16954;SDS011;8594;52.052;8.354;2023-05-06T11:16:54;5.50;;;2.50;;
16954;SDS011;8594;52.052;8.354;2023-05-06T11:19:23;4.83;;;2.00;;
16954;SDS011;8594;52.052;8.354;2023-05-06T11:21:52;1.60;;;1.20;;
16954;SDS011;8594;52.052;8.354;2023-05-06T11:24:22;4.60;;;1.10;;
16954;SDS011;8594;52.052;8.354;2023-05-06T11:26:53;2.03;;;1.43;;
16954;SDS011;8594;52.052;8.354;2023-05-06T11:29:21;3.83;;;1.10;;
16954;SDS011;8594;52.052;8.354;2023-05-06T11:31:49;2.40;;;1.10;;
16954;SDS011;8594;52.052;8.354;2023-05-06T11:34:19;1.60;;;1.00;;
16954;SDS011;8594;52.052;8.354;2023-05-06T11:36:51;5.17;;;1.37;;
16954;SDS011;8594;52.052;8.354;2023-05-06T11:39:22;2.13;;;1.60;;
16954;SDS011;8594;52.052;8.354;2023-05-06T11:41:52;5.47;;;1.87;;
16954;SDS011;8594;52.052;8.354;2023-05-06T11:44:23;3.37;;;2.00;;
16954;SDS011;8594;52.052;8.354;2023-05-06T11:46:55;3.77;;;1.97;;
16954;SDS011;8594;52.052;8.354;2023-05-06T11:49:23;3.03;;;1.90;;
16954;SDS011;8594;52.052;8.354;2023-05-06T11:51:50;5.50;;;1.97;;
16954;SDS011;8594;52.052;8.354;2023-05-06T11:54:18;3.23;;;1.90;;
16954;SDS011;8594;52.052;8.354;2023-05-06T11:56:50;3.83;;;2.27;;
16954;SDS011;8594;52.052;8.354;2023-05-06T11:59:30;6.17;;;2.63;;
16954;SDS011;8594;52.052;8.354;2023-05-06T12:01:58;4.00;;;3.00;;
16954;SDS011;8594;52.052;8.354;2023-05-06T12:04:35;4.10;;;2.30;;
16954;SDS011;8594;52.052;8.354;2023-05-06T12:07:04;3.30;;;2.13;;
16954;SDS011;8594;52.052;8.354;2023-05-06T12:09:32;4.93;;;1.83;;
16954;SDS011;8594;52.052;8.354;2023-05-06T12:12:02;5.60;;;2.40;;
16954;SDS011;8594;52.052;8.354;2023-05-06T12:14:31;3.43;;;2.37;;
16954;SDS011;8594;52.052;8.354;2023-05-06T12:16:58;3.47;;;2.20;;
16954;SDS011;8594;52.052;8.354;2023-05-06T12:19:26;3.73;;;2.13;;
16954;SDS011;8594;52.052;8.354;2023-05-06T12:21:54;4.13;;;2.40;;
16954;SDS011;8594;52.052;8.354;2023-05-06T12:24:27;4.37;;;2.90;;
16954;SDS011;8594;52.052;8.354;2023-05-06T12:26:54;4.30;;;2.43;;
16954;SDS011;8594;52.052;8.354;2023-05-06T12:29:22;5.00;;;2.50;;
16954;SDS011;8594;52.052;8.354;2023-05-06T12:31:56;3.83;;;2.10;;
16954;SDS011;8594;52.052;8.354;2023-05-06T12:34:37;4.13;;;2.40;;
16954;SDS011;8594;52.052;8.354;2023-05-06T12:37:05;4.00;;;2.47;;
16954;SDS011;8594;52.052;8.354;2023-05-06T12:39:33;5.10;;;2.77;;
16954;SDS011;8594;52.052;8.354;2023-05-06T12:42:01;3.47;;;2.83;;
16954;SDS011;8594;52.052;8.354;2023-05-06T12:44:33;6.80;;;2.80;;
16954;SDS011;8594;52.052;8.354;2023-05-06T12:47:03;6.80;;;2.80;;
16954;SDS011;8594;52.052;8.354;2023-05-06T12:49:44;4.43;;;2.43;;
16954;SDS011;8594;52.052;8.354;2023-05-06T12:52:13;4.13;;;2.70;;
16954;SDS011;8594;52.052;8.354;2023-05-06T12:54:40;4.80;;;3.43;;
16954;SDS011;8594;52.052;8.354;2023-05-06T12:57:07;7.33;;;4.40;;
16954;SDS011;8594;52.052;8.354;2023-05-06T12:59:35;6.87;;;4.00;;
16954;SDS011;8594;52.052;8.354;2023-05-06T13:02:03;7.00;;;4.13;;
16954;SDS011;8594;52.052;8.354;2023-05-06T13:04:30;5.33;;;3.87;;
16954;SDS011;8594;52.052;8.354;2023-05-06T13:06:57;6.07;;;3.50;;
16954;SDS011;8594;52.052;8.354;2023-05-06T13:09:24;6.50;;;3.83;;
16954;SDS011;8594;52.052;8.354;2023-05-06T13:11:51;6.10;;;3.47;;
16954;SDS011;8594;52.052;8.354;2023-05-06T13:14:19;6.47;;;4.13;;
16954;SDS011;8594;52.052;8.354;2023-05-06T13:16:47;9.37;;;4.00;;
16954;SDS011;8594;52.052;8.354;2023-05-06T13:19:14;5.27;;;3.50;;
16954;SDS011;8594;52.052;8.354;2023-05-06T13:21:41;6.17;;;3.57;;
16954;SDS011;8594;52.052;8.354;2023-05-06T13:24:09;9.27;;;3.83;;
16954;SDS011;8594;52.052;8.354;2023-05-06T13:26:36;4.97;;;3.33;;
16954;SDS011;8594;52.052;8.354;2023-05-06T13:29:03;7.90;;;4.17;;
16954;SDS011;8594;52.052;8.354;2023-05-06T13:31:30;7.73;;;4.13;;
16954;SDS011;8594;52.052;8.354;2023-05-06T13:34:00;6.50;;;3.33;;
16954;SDS011;8594;52.052;8.354;2023-05-06T13:36:26;5.37;;;3.20;;
16954;SDS011;8594;52.052;8.354;2023-05-06T13:38:53;6.00;;;3.60;;
16954;SDS011;8594;52.052;8.354;2023-05-06T13:41:21;9.10;;;3.60;;
16954;SDS011;8594;52.052;8.354;2023-05-06T13:43:48;9.00;;;3.30;;
16954;SDS011;8594;52.052;8.354;2023-05-06T13:46:16;5.10;;;2.90;;
16954;SDS011;8594;52.052;8.354;2023-05-06T13:48:42;6.87;;;3.40;;
16954;SDS011;8594;52.052;8.354;2023-05-06T13:51:10;8.10;;;3.67;;
16954;SDS011;8594;52.052;8.354;2023-05-06T13:53:37;8.93;;;3.20;;
16954;SDS011;8594;52.052;8.354;2023-05-06T13:56:05;7.93;;;3.10;;
16954;SDS011;8594;52.052;8.354;2023-05-06T13:58:32;5.73;;;3.07;;
16954;SDS011;8594;52.052;8.354;2023-05-06T14:00:59;8.53;;;3.43;;
16954;SDS011;8594;52.052;8.354;2023-05-06T14:03:25;5.43;;;3.10;;
16954;SDS011;8594;52.052;8.354;2023-05-06T14:05:53;5.00;;;3.30;;
16954;SDS011;8594;52.052;8.354;2023-05-06T14:08:21;7.53;;;3.47;;
16954;SDS011;8594;52.052;8.354;2023-05-06T14:10:48;7.00;;;4.20;;
16954;SDS011;8594;52.052;8.354;2023-05-06T14:13:15;6.43;;;3.10;;
16954;SDS011;8594;52.052;8.354;2023-05-06T14:15:42;5.40;;;3.60;;
16954;SDS011;8594;52.052;8.354;2023-05-06T14:18:08;5.93;;;3.40;;
16954;SDS011;8594;52.052;8.354;2023-05-06T14:20:35;5.33;;;3.43;;
16954;SDS011;8594;52.052;8.354;2023-05-06T14:23:03;10.47;;;3.63;;
16954;SDS011;8594;52.052;8.354;2023-05-06T14:25:32;4.53;;;3.33;;
16954;SDS011;8594;52.052;8.354;2023-05-06T14:27:59;5.30;;;3.10;;
16954;SDS011;8594;52.052;8.354;2023-05-06T14:30:25;4.40;;;3.03;;
16954;SDS011;8594;52.052;8.354;2023-05-06T14:32:52;4.93;;;3.50;;
16954;SDS011;8594;52.052;8.354;2023-05-06T14:35:19;5.73;;;3.10;;
16954;SDS011;8594;52.052;8.354;2023-05-06T14:37:46;6.40;;;3.30;;
16954;SDS011;8594;52.052;8.354;2023-05-06T14:40:14;6.53;;;3.60;;
16954;SDS011;8594;52.052;8.354;2023-05-06T14:42:43;7.20;;;3.87;;
16954;SDS011;8594;52.052;8.354;2023-05-06T14:45:10;4.67;;;2.63;;
16954;SDS011;8594;52.052;8.354;2023-05-06T14:47:38;6.13;;;3.73;;
16954;SDS011;8594;52.052;8.354;2023-05-06T14:50:06;6.30;;;3.53;;
16954;SDS011;8594;52.052;8.354;2023-05-06T14:52:34;6.40;;;3.23;;